sensor_id;sensor_type;location;lat;lon;timestamp;pressure;altitude;pressure_sealevel;temperature;humidity
44044;BME280;29709;52.396;16.796;2023-04-10T00:02:26;102687.59;;;7.74;77.49
44044;BME280;29709;52.396;16.796;2023-04-10T00:05:39;102675.62;;;7.62;77.87
44044;BME280;29709;52.396;16.796;2023-04-10T00:08:52;102687.73;;;7.58;77.85
44044;BME280;29709;52.396;16.796;2023-04-10T00:12:06;102686.30;;;7.52;77.72
44044;BME280;29709;52.396;16.796;2023-04-10T00:15:19;102684.95;;;7.45;77.26
44044;BME280;29709;52.396;16.796;2023-04-10T00:18:32;102683.69;;;7.37;77.95
44044;BME280;29709;52.396;16.796;2023-04-10T00:21:46;102674.93;;;7.32;78.40
44044;BME280;29709;52.396;16.796;2023-04-10T00:24:59;102687.83;;;7.30;78.09
44044;BME280;29709;52.396;16.796;2023-04-10T00:28:12;102668.70;;;7.15;78.38
44044;BME280;29709;52.396;16.796;2023-04-10T00:31:29;102666.38;;;7.09;79.84
44044;BME280;29709;52.396;16.796;2023-04-10T00:34:43;102665.41;;;7.10;80.48
44044;BME280;29709;52.396;16.796;2023-04-10T00:37:57;102659.72;;;7.13;80.87
44044;BME280;29709;52.396;16.796;2023-04-10T00:41:10;102658.18;;;7.09;79.74
44044;BME280;29709;52.396;16.796;2023-04-10T00:44:24;102651.56;;;6.99;79.58
44044;BME280;29709;52.396;16.796;2023-04-10T00:47:37;102653.42;;;6.99;79.50
44044;BME280;29709;52.396;16.796;2023-04-10T00:50:51;102654.99;;;6.88;79.19
44044;BME280;29709;52.396;16.796;2023-04-10T00:54:04;102660.25;;;6.91;79.58
44044;BME280;29709;52.396;16.796;2023-04-10T00:57:18;102666.98;;;6.86;79.87
44044;BME280;29709;52.396;16.796;2023-04-10T01:00:32;102658.31;;;6.79;79.76
44044;BME280;29709;52.396;16.796;2023-04-10T01:03:45;102669.41;;;6.76;80.45
44044;BME280;29709;52.396;16.796;2023-04-10T01:10:35;102668.08;;;6.69;80.81
44044;BME280;29709;52.396;16.796;2023-04-10T01:14:03;102665.45;;;6.68;81.42
44044;BME280;29709;52.396;16.796;2023-04-10T01:17:26;102670.81;;;6.69;82.48
44044;BME280;29709;52.396;16.796;2023-04-10T01:20:41;102668.18;;;6.68;81.91
44044;BME280;29709;52.396;16.796;2023-04-10T01:30:56;102690.41;;;6.61;82.19
44044;BME280;29709;52.396;16.796;2023-04-10T01:34:16;102684.95;;;6.61;81.89
44044;BME280;29709;52.396;16.796;2023-04-10T01:37:34;102686.70;;;6.62;81.28
44044;BME280;29709;52.396;16.796;2023-04-10T01:40:52;102690.61;;;6.58;82.46
44044;BME280;29709;52.396;16.796;2023-04-10T01:44:07;102699.59;;;6.46;81.77
44044;BME280;29709;52.396;16.796;2023-04-10T01:47:21;102691.75;;;6.40;82.10
44044;BME280;29709;52.396;16.796;2023-04-10T01:50:37;102695.66;;;6.36;81.77
44044;BME280;29709;52.396;16.796;2023-04-10T01:53:51;102684.48;;;6.25;81.52
44044;BME280;29709;52.396;16.796;2023-04-10T01:57:04;102679.69;;;6.14;82.15
44044;BME280;29709;52.396;16.796;2023-04-10T02:00:18;102680.68;;;6.13;82.59
44044;BME280;29709;52.396;16.796;2023-04-10T02:03:31;102681.84;;;6.09;82.19
44044;BME280;29709;52.396;16.796;2023-04-10T02:06:58;102681.94;;;6.07;82.35
44044;BME280;29709;52.396;16.796;2023-04-10T02:13:39;102677.61;;;6.03;81.78
44044;BME280;29709;52.396;16.796;2023-04-10T02:16:54;102682.85;;;5.92;83.12
44044;BME280;29709;52.396;16.796;2023-04-10T02:20:09;102672.02;;;5.91;83.75
44044;BME280;29709;52.396;16.796;2023-04-10T02:23:23;102679.95;;;5.95;83.29
44044;BME280;29709;52.396;16.796;2023-04-10T02:26:45;102681.42;;;6.01;83.37
44044;BME280;29709;52.396;16.796;2023-04-10T02:30:00;102685.55;;;6.08;84.77
44044;BME280;29709;52.396;16.796;2023-04-10T02:33:15;102685.90;;;6.02;83.16
44044;BME280;29709;52.396;16.796;2023-04-10T02:36:28;102691.10;;;6.06;83.54
44044;BME280;29709;52.396;16.796;2023-04-10T02:39:41;102684.86;;;6.04;84.99
44044;BME280;29709;52.396;16.796;2023-04-10T02:42:54;102685.45;;;6.10;85.45
44044;BME280;29709;52.396;16.796;2023-04-10T02:46:08;102687.00;;;6.14;84.23
44044;BME280;29709;52.396;16.796;2023-04-10T02:49:21;102682.81;;;6.08;85.99
44044;BME280;29709;52.396;16.796;2023-04-10T02:52:34;102690.70;;;6.13;87.69
44044;BME280;29709;52.396;16.796;2023-04-10T02:55:47;102684.77;;;6.06;86.12
44044;BME280;29709;52.396;16.796;2023-04-10T02:59:00;102683.01;;;6.05;86.44
44044;BME280;29709;52.396;16.796;2023-04-10T03:02:13;102678.69;;;6.01;86.77
44044;BME280;29709;52.396;16.796;2023-04-10T03:05:27;102689.34;;;6.05;86.36
44044;BME280;29709;52.396;16.796;2023-04-10T03:08:40;102680.77;;;6.12;87.18
44044;BME280;29709;52.396;16.796;2023-04-10T03:11:53;102691.49;;;6.15;87.62
44044;BME280;29709;52.396;16.796;2023-04-10T03:15:07;102692.40;;;6.15;87.23
44044;BME280;29709;52.396;16.796;2023-04-10T03:18:21;102691.43;;;6.16;87.02
44044;BME280;29709;52.396;16.796;2023-04-10T03:21:34;102689.93;;;6.11;87.40
44044;BME280;29709;52.396;16.796;2023-04-10T03:24:47;102691.03;;;6.22;87.04
44044;BME280;29709;52.396;16.796;2023-04-10T03:28:00;102689.37;;;6.20;86.08
44044;BME280;29709;52.396;16.796;2023-04-10T03:31:13;102688.59;;;6.18;86.63
44044;BME280;29709;52.396;16.796;2023-04-10T03:34:27;102697.57;;;6.20;85.79
44044;BME280;29709;52.396;16.796;2023-04-10T03:37:40;102689.67;;;6.15;85.83
44044;BME280;29709;52.396;16.796;2023-04-10T03:40:54;102693.96;;;6.19;86.33
44044;BME280;29709;52.396;16.796;2023-04-10T03:44:07;102696.33;;;6.25;84.96
44044;BME280;29709;52.396;16.796;2023-04-10T03:47:20;102697.57;;;6.20;85.09
44044;BME280;29709;52.396;16.796;2023-04-10T03:50:33;102685.45;;;6.10;84.69
44044;BME280;29709;52.396;16.796;2023-04-10T03:53:47;102680.12;;;5.92;84.72
44044;BME280;29709;52.396;16.796;2023-04-10T03:57:00;102687.06;;;5.82;86.30
44044;BME280;29709;52.396;16.796;2023-04-10T04:00:16;102679.51;;;5.87;86.10
44044;BME280;29709;52.396;16.796;2023-04-10T04:03:29;102684.79;;;5.90;85.73
44044;BME280;29709;52.396;16.796;2023-04-10T04:06:43;102686.48;;;5.77;84.80
44044;BME280;29709;52.396;16.796;2023-04-10T04:09:56;102686.48;;;5.77;85.75
44044;BME280;29709;52.396;16.796;2023-04-10T04:13:09;102696.66;;;5.89;85.43
44044;BME280;29709;52.396;16.796;2023-04-10T04:16:22;102687.43;;;5.92;84.68
44044;BME280;29709;52.396;16.796;2023-04-10T04:19:35;102691.55;;;5.99;84.79
44044;BME280;29709;52.396;16.796;2023-04-10T04:22:49;102692.08;;;6.05;84.68
44044;BME280;29709;52.396;16.796;2023-04-10T04:26:02;102693.05;;;6.04;84.61
44044;BME280;29709;52.396;16.796;2023-04-10T04:29:15;102694.80;;;6.05;85.29
44044;BME280;29709;52.396;16.796;2023-04-10T04:32:29;102693.53;;;6.11;84.52
44044;BME280;29709;52.396;16.796;2023-04-10T04:35:42;102699.87;;;6.12;83.34
44044;BME280;29709;52.396;16.796;2023-04-10T04:38:55;102700.63;;;5.99;82.75
44044;BME280;29709;52.396;16.796;2023-04-10T04:42:08;102699.22;;;5.92;83.72
44044;BME280;29709;52.396;16.796;2023-04-10T04:45:21;102707.75;;;5.86;83.76
44044;BME280;29709;52.396;16.796;2023-04-10T04:48:34;102712.44;;;5.84;83.95
44044;BME280;29709;52.396;16.796;2023-04-10T04:51:47;102711.12;;;5.75;84.10
44044;BME280;29709;52.396;16.796;2023-04-10T04:55:01;102714.54;;;5.79;84.70
44044;BME280;29709;52.396;16.796;2023-04-10T04:58:14;102719.21;;;5.77;84.42
44044;BME280;29709;52.396;16.796;2023-04-10T05:01:27;102727.21;;;5.80;85.02
44044;BME280;29709;52.396;16.796;2023-04-10T05:04:40;102730.21;;;5.91;84.65
44044;BME280;29709;52.396;16.796;2023-04-10T05:07:53;102735.83;;;5.88;83.23
44044;BME280;29709;52.396;16.796;2023-04-10T05:11:07;102729.34;;;5.75;83.70
44044;BME280;29709;52.396;16.796;2023-04-10T05:14:20;102733.84;;;5.76;84.71
44044;BME280;29709;52.396;16.796;2023-04-10T05:17:34;102731.59;;;5.83;85.89
44044;BME280;29709;52.396;16.796;2023-04-10T05:20:48;102734.16;;;6.01;85.16
44044;BME280;29709;52.396;16.796;2023-04-10T05:24:02;102736.96;;;6.16;85.53
44044;BME280;29709;52.396;16.796;2023-04-10T05:27:16;102749.95;;;6.26;85.62
44044;BME280;29709;52.396;16.796;2023-04-10T05:30:30;102741.69;;;6.42;84.94
44044;BME280;29709;52.396;16.796;2023-04-10T05:34:08;102755.77;;;6.50;85.45
44044;BME280;29709;52.396;16.796;2023-04-10T05:37:22;102751.39;;;6.62;85.63
44044;BME280;29709;52.396;16.796;2023-04-10T05:40:35;102755.02;;;6.77;84.68
44044;BME280;29709;52.396;16.796;2023-04-10T05:43:48;102755.71;;;6.94;84.95
44044;BME280;29709;52.396;16.796;2023-04-10T05:47:02;102756.41;;;7.12;86.02
44044;BME280;29709;52.396;16.796;2023-04-10T05:50:15;102757.27;;;7.27;85.61
44044;BME280;29709;52.396;16.796;2023-04-10T05:53:28;102764.60;;;7.41;82.97
44044;BME280;29709;52.396;16.796;2023-04-10T05:56:44;102755.91;;;7.34;84.93
44044;BME280;29709;52.396;16.796;2023-04-10T05:59:58;102758.03;;;7.43;85.01
44044;BME280;29709;52.396;16.796;2023-04-10T06:03:11;102760.18;;;7.52;85.17
44044;BME280;29709;52.396;16.796;2023-04-10T06:06:24;102757.29;;;7.68;85.98
44044;BME280;29709;52.396;16.796;2023-04-10T06:09:38;102760.98;;;7.81;85.65
44044;BME280;29709;52.396;16.796;2023-04-10T06:12:51;102753.48;;;7.98;83.68
44044;BME280;29709;52.396;16.796;2023-04-10T06:16:05;102764.47;;;8.10;83.72
44044;BME280;29709;52.396;16.796;2023-04-10T06:19:18;102759.86;;;8.11;84.90
44044;BME280;29709;52.396;16.796;2023-04-10T06:22:31;102758.47;;;8.18;83.62
44044;BME280;29709;52.396;16.796;2023-04-10T06:25:44;102762.98;;;8.19;83.74
44044;BME280;29709;52.396;16.796;2023-04-10T06:28:58;102752.00;;;8.19;83.72
44044;BME280;29709;52.396;16.796;2023-04-10T06:32:11;102754.75;;;8.19;83.45
44044;BME280;29709;52.396;16.796;2023-04-10T06:35:24;102757.27;;;8.22;83.67
44044;BME280;29709;52.396;16.796;2023-04-10T06:38:39;102753.91;;;8.31;84.02
44044;BME280;29709;52.396;16.796;2023-04-10T06:41:53;102751.88;;;8.35;84.37
44044;BME280;29709;52.396;16.796;2023-04-10T06:45:07;102745.55;;;8.47;83.47
44044;BME280;29709;52.396;16.796;2023-04-10T06:48:20;102754.99;;;8.56;83.47
44044;BME280;29709;52.396;16.796;2023-04-10T06:51:33;102754.88;;;8.70;83.82
44044;BME280;29709;52.396;16.796;2023-04-10T06:54:46;102755.55;;;8.86;83.43
44044;BME280;29709;52.396;16.796;2023-04-10T06:58:00;102754.42;;;9.14;83.76
44044;BME280;29709;52.396;16.796;2023-04-10T07:01:13;102750.43;;;9.44;83.09
44044;BME280;29709;52.396;16.796;2023-04-10T07:04:26;102759.09;;;9.50;81.81
44044;BME280;29709;52.396;16.796;2023-04-10T07:07:39;102763.11;;;9.58;82.05
44044;BME280;29709;52.396;16.796;2023-04-10T07:10:52;102763.11;;;9.70;82.45
44044;BME280;29709;52.396;16.796;2023-04-10T07:14:05;102760.01;;;9.75;81.29
44044;BME280;29709;52.396;16.796;2023-04-10T07:17:19;102763.50;;;9.77;81.76
44044;BME280;29709;52.396;16.796;2023-04-10T07:20:32;102761.63;;;9.90;81.13
44044;BME280;29709;52.396;16.796;2023-04-10T07:23:46;102764.75;;;9.97;81.44
44044;BME280;29709;52.396;16.796;2023-04-10T07:27:00;102761.30;;;10.06;80.53
44044;BME280;29709;52.396;16.796;2023-04-10T07:30:13;102759.85;;;10.13;80.79
44044;BME280;29709;52.396;16.796;2023-04-10T07:33:26;102760.85;;;10.36;80.81
44044;BME280;29709;52.396;16.796;2023-04-10T07:38:49;102763.04;;;10.55;80.71
44044;BME280;29709;52.396;16.796;2023-04-10T07:42:02;102760.68;;;10.73;80.06
44044;BME280;29709;52.396;16.796;2023-04-10T07:45:15;102754.60;;;10.91;79.85
44044;BME280;29709;52.396;16.796;2023-04-10T07:48:29;102745.62;;;11.12;79.80
44044;BME280;29709;52.396;16.796;2023-04-10T07:51:42;102750.38;;;11.21;78.70
44044;BME280;29709;52.396;16.796;2023-04-10T07:54:55;102744.12;;;11.41;79.41
44044;BME280;29709;52.396;16.796;2023-04-10T07:58:08;102748.34;;;11.56;78.44
44044;BME280;29709;52.396;16.796;2023-04-10T08:01:22;102737.43;;;11.66;79.06
44044;BME280;29709;52.396;16.796;2023-04-10T08:04:35;102747.05;;;11.94;78.16
44044;BME280;29709;52.396;16.796;2023-04-10T08:07:48;102746.68;;;11.99;77.83
44044;BME280;29709;52.396;16.796;2023-04-10T08:11:03;102742.09;;;12.20;78.20
44044;BME280;29709;52.396;16.796;2023-04-10T08:14:17;102739.52;;;12.28;77.45
44044;BME280;29709;52.396;16.796;2023-04-10T08:17:30;102739.00;;;12.34;77.17
44044;BME280;29709;52.396;16.796;2023-04-10T08:20:43;102739.00;;;12.34;76.86
44044;BME280;29709;52.396;16.796;2023-04-10T08:23:58;102734.94;;;12.18;76.42
44044;BME280;29709;52.396;16.796;2023-04-10T08:27:12;102726.20;;;12.12;77.10
44044;BME280;29709;52.396;16.796;2023-04-10T08:30:27;102717.67;;;12.36;77.81
44044;BME280;29709;52.396;16.796;2023-04-10T08:33:40;102721.16;;;12.80;77.35
44044;BME280;29709;52.396;16.796;2023-04-10T08:36:54;102717.55;;;13.10;75.97
44044;BME280;29709;52.396;16.796;2023-04-10T08:40:07;102718.64;;;13.19;75.34
44044;BME280;29709;52.396;16.796;2023-04-10T08:43:21;102718.40;;;13.32;75.49
44044;BME280;29709;52.396;16.796;2023-04-10T08:46:35;102721.78;;;13.35;75.19
44044;BME280;29709;52.396;16.796;2023-04-10T08:49:53;102718.18;;;13.44;74.32
44044;BME280;29709;52.396;16.796;2023-04-10T08:53:11;102709.13;;;13.42;73.40
44044;BME280;29709;52.396;16.796;2023-04-10T08:56:32;102711.67;;;13.55;74.48
44044;BME280;29709;52.396;16.796;2023-04-10T08:59:48;102707.99;;;13.54;73.73
44044;BME280;29709;52.396;16.796;2023-04-10T09:03:09;102708.77;;;13.56;73.87
44044;BME280;29709;52.396;16.796;2023-04-10T09:06:26;102709.36;;;13.70;74.60
44044;BME280;29709;52.396;16.796;2023-04-10T09:09:40;102706.34;;;14.02;74.42
44044;BME280;29709;52.396;16.796;2023-04-10T09:12:53;102695.72;;;14.16;73.32
44044;BME280;29709;52.396;16.796;2023-04-10T09:16:07;102699.24;;;14.19;72.71
44044;BME280;29709;52.396;16.796;2023-04-10T09:19:30;102698.77;;;14.42;73.79
44044;BME280;29709;52.396;16.796;2023-04-10T09:22:44;102688.27;;;14.65;72.29
44044;BME280;29709;52.396;16.796;2023-04-10T09:26:22;102690.86;;;14.77;72.08
44044;BME280;29709;52.396;16.796;2023-04-10T09:29:25;102680.56;;;15.06;71.91
44044;BME280;29709;52.396;16.796;2023-04-10T09:32:41;102686.90;;;15.26;71.83
44044;BME280;29709;52.396;16.796;2023-04-10T09:35:57;102680.59;;;15.34;70.55
44044;BME280;29709;52.396;16.796;2023-04-10T09:39:12;102680.16;;;15.28;70.22
44044;BME280;29709;52.396;16.796;2023-04-10T09:42:34;102673.09;;;15.44;70.90
44044;BME280;29709;52.396;16.796;2023-04-10T09:45:53;102679.75;;;15.51;69.86
44044;BME280;29709;52.396;16.796;2023-04-10T09:49:06;102674.59;;;15.38;68.66
44044;BME280;29709;52.396;16.796;2023-04-10T09:52:25;102666.80;;;15.24;68.72
44044;BME280;29709;52.396;16.796;2023-04-10T09:55:39;102663.87;;;15.25;70.49
44044;BME280;29709;52.396;16.796;2023-04-10T09:58:59;102666.91;;;15.32;69.96
44044;BME280;29709;52.396;16.796;2023-04-10T10:02:16;102650.93;;;15.44;69.72
44044;BME280;29709;52.396;16.796;2023-04-10T10:05:30;102648.37;;;15.60;70.04
44044;BME280;29709;52.396;16.796;2023-04-10T10:08:45;102641.02;;;15.69;70.11
44044;BME280;29709;52.396;16.796;2023-04-10T10:12:00;102633.74;;;15.85;68.82
44044;BME280;29709;52.396;16.796;2023-04-10T10:15:42;102635.95;;;15.82;69.26
44044;BME280;29709;52.396;16.796;2023-04-10T10:18:53;102635.87;;;15.92;68.09
44044;BME280;29709;52.396;16.796;2023-04-10T10:22:05;102637.85;;;15.99;68.54
44044;BME280;29709;52.396;16.796;2023-04-10T10:25:22;102635.00;;;16.09;68.09
44044;BME280;29709;52.396;16.796;2023-04-10T10:28:36;102631.97;;;16.02;66.99
44044;BME280;29709;52.396;16.796;2023-04-10T10:31:52;102631.27;;;16.18;68.02
44044;BME280;29709;52.396;16.796;2023-04-10T10:35:07;102620.10;;;16.36;67.68
44044;BME280;29709;52.396;16.796;2023-04-10T10:38:21;102615.78;;;16.59;67.79
44044;BME280;29709;52.396;16.796;2023-04-10T10:41:50;102610.51;;;16.74;67.33
44044;BME280;29709;52.396;16.796;2023-04-10T10:45:11;102612.07;;;16.77;65.82
44044;BME280;29709;52.396;16.796;2023-04-10T10:48:25;102598.09;;;16.60;65.17
44044;BME280;29709;52.396;16.796;2023-04-10T10:51:49;102605.36;;;16.79;64.77
44044;BME280;29709;52.396;16.796;2023-04-10T11:08:52;102585.06;;;17.21;60.97
44044;BME280;29709;52.396;16.796;2023-04-10T11:12:05;102579.10;;;17.16;61.27
44044;BME280;29709;52.396;16.796;2023-04-10T11:15:22;102576.71;;;17.21;60.00
44044;BME280;29709;52.396;16.796;2023-04-10T11:22:06;102576.33;;;17.16;59.82
44044;BME280;29709;52.396;16.796;2023-04-10T11:25:20;102568.05;;;17.32;61.03
44044;BME280;29709;52.396;16.796;2023-04-10T11:28:35;102565.10;;;17.34;59.07
44044;BME280;29709;52.396;16.796;2023-04-10T11:31:58;102561.07;;;17.28;58.45
44044;BME280;29709;52.396;16.796;2023-04-10T11:35:18;102558.30;;;17.28;59.89
44044;BME280;29709;52.396;16.796;2023-04-10T11:38:31;102558.64;;;17.25;59.53
44044;BME280;29709;52.396;16.796;2023-04-10T11:41:51;102546.16;;;17.37;59.23
44044;BME280;29709;52.396;16.796;2023-04-10T11:48:30;102545.84;;;17.48;58.00
44044;BME280;29709;52.396;16.796;2023-04-10T11:51:46;102542.19;;;17.48;60.10
44044;BME280;29709;52.396;16.796;2023-04-10T11:54:59;102551.23;;;17.42;61.28
44044;BME280;29709;52.396;16.796;2023-04-10T12:01:41;102537.39;;;17.74;61.03
44044;BME280;29709;52.396;16.796;2023-04-10T12:04:57;102537.73;;;17.87;60.94
44044;BME280;29709;52.396;16.796;2023-04-10T12:08:10;102531.31;;;18.03;60.30
44044;BME280;29709;52.396;16.796;2023-04-10T12:11:24;102531.49;;;17.94;60.31
44044;BME280;29709;52.396;16.796;2023-04-10T12:14:41;102521.19;;;18.02;60.94
44044;BME280;29709;52.396;16.796;2023-04-10T12:17:55;102512.16;;;18.08;59.23
44044;BME280;29709;52.396;16.796;2023-04-10T12:21:08;102503.49;;;17.95;58.25
44044;BME280;29709;52.396;16.796;2023-04-10T12:27:48;102496.00;;;18.04;60.09
44044;BME280;29709;52.396;16.796;2023-04-10T12:31:05;102493.73;;;18.07;59.00
44044;BME280;29709;52.396;16.796;2023-04-10T12:34:18;102497.20;;;18.01;58.04
44044;BME280;29709;52.396;16.796;2023-04-10T12:41:01;102490.63;;;17.94;58.82
44044;BME280;29709;52.396;16.796;2023-04-10T12:44:14;102483.47;;;18.00;57.31
44044;BME280;29709;52.396;16.796;2023-04-10T12:47:28;102478.77;;;18.08;57.72
44044;BME280;29709;52.396;16.796;2023-04-10T12:50:47;102475.13;;;17.92;56.84
44044;BME280;29709;52.396;16.796;2023-04-10T12:54:01;102477.95;;;17.83;57.99
44044;BME280;29709;52.396;16.796;2023-04-10T13:00:41;102458.07;;;18.03;57.84
44044;BME280;29709;52.396;16.796;2023-04-10T13:03:54;102462.09;;;17.92;57.14
44044;BME280;29709;52.396;16.796;2023-04-10T13:07:07;102463.50;;;17.96;57.75
44044;BME280;29709;52.396;16.796;2023-04-10T13:10:21;102458.61;;;18.06;57.39
44044;BME280;29709;52.396;16.796;2023-04-10T13:13:36;102447.98;;;18.02;56.98
44044;BME280;29709;52.396;16.796;2023-04-10T13:16:49;102442.97;;;18.05;57.18
44044;BME280;29709;52.396;16.796;2023-04-10T13:20:03;102432.81;;;18.21;57.08
44044;BME280;29709;52.396;16.796;2023-04-10T13:23:16;102429.71;;;18.15;55.81
44044;BME280;29709;52.396;16.796;2023-04-10T13:26:29;102427.78;;;18.24;56.82
44044;BME280;29709;52.396;16.796;2023-04-10T13:29:42;102426.56;;;18.18;55.72
44044;BME280;29709;52.396;16.796;2023-04-10T13:32:56;102414.95;;;18.07;55.14
44044;BME280;29709;52.396;16.796;2023-04-10T13:36:09;102414.27;;;18.05;55.73
44044;BME280;29709;52.396;16.796;2023-04-10T13:39:22;102408.63;;;18.21;56.22
44044;BME280;29709;52.396;16.796;2023-04-10T13:42:35;102402.67;;;18.32;55.04
44044;BME280;29709;52.396;16.796;2023-04-10T13:45:48;102401.37;;;18.12;54.33
44044;BME280;29709;52.396;16.796;2023-04-10T13:49:04;102393.19;;;18.10;54.82
44044;BME280;29709;52.396;16.796;2023-04-10T13:52:18;102387.81;;;18.09;55.38
44044;BME280;29709;52.396;16.796;2023-04-10T13:55:31;102374.45;;;18.04;53.87
44044;BME280;29709;52.396;16.796;2023-04-10T13:58:48;102371.53;;;17.89;54.79
44044;BME280;29709;52.396;16.796;2023-04-10T14:02:01;102370.68;;;17.81;54.38
44044;BME280;29709;52.396;16.796;2023-04-10T14:05:15;102355.70;;;17.90;54.57
44044;BME280;29709;52.396;16.796;2023-04-10T14:08:28;102359.35;;;17.91;54.11
44044;BME280;29709;52.396;16.796;2023-04-10T14:11:41;102357.12;;;17.86;54.60
44044;BME280;29709;52.396;16.796;2023-04-10T14:14:55;102342.91;;;17.73;53.58
44044;BME280;29709;52.396;16.796;2023-04-10T14:18:08;102342.05;;;17.72;53.57
44044;BME280;29709;52.396;16.796;2023-04-10T14:21:22;102347.95;;;17.69;53.50
44044;BME280;29709;52.396;16.796;2023-04-10T14:24:35;102333.15;;;17.60;53.54
44044;BME280;29709;52.396;16.796;2023-04-10T14:27:48;102341.16;;;17.64;53.48
44044;BME280;29709;52.396;16.796;2023-04-10T14:31:03;102336.63;;;17.71;52.99
44044;BME280;29709;52.396;16.796;2023-04-10T14:34:18;102323.60;;;17.71;53.92
44044;BME280;29709;52.396;16.796;2023-04-10T14:37:31;102323.45;;;17.73;52.56
44044;BME280;29709;52.396;16.796;2023-04-10T14:40:44;102317.18;;;17.63;50.37
44044;BME280;29709;52.396;16.796;2023-04-10T14:44:01;102315.79;;;17.58;50.84
44044;BME280;29709;52.396;16.796;2023-04-10T14:47:15;102311.96;;;17.59;51.23
44044;BME280;29709;52.396;16.796;2023-04-10T14:50:30;102297.01;;;17.60;49.78
44044;BME280;29709;52.396;16.796;2023-04-10T14:53:45;102295.46;;;17.58;50.74
44044;BME280;29709;52.396;16.796;2023-04-10T14:56:58;102292.84;;;17.65;49.66
44044;BME280;29709;52.396;16.796;2023-04-10T15:00:11;102295.65;;;17.56;49.97
44044;BME280;29709;52.396;16.796;2023-04-10T15:03:25;102294.30;;;17.44;50.99
44044;BME280;29709;52.396;16.796;2023-04-10T15:06:38;102279.89;;;17.41;50.97
44044;BME280;29709;52.396;16.796;2023-04-10T15:09:55;102277.99;;;17.33;48.62
44044;BME280;29709;52.396;16.796;2023-04-10T15:13:09;102273.81;;;17.29;50.39
44044;BME280;29709;52.396;16.796;2023-04-10T15:16:22;102281.14;;;17.30;51.81
44044;BME280;29709;52.396;16.796;2023-04-10T15:19:35;102272.79;;;17.30;50.75
44044;BME280;29709;52.396;16.796;2023-04-10T15:22:49;102275.03;;;17.35;50.17
44044;BME280;29709;52.396;16.796;2023-04-10T15:26:02;102267.54;;;17.43;49.61
44044;BME280;29709;52.396;16.796;2023-04-10T15:29:15;102265.45;;;17.45;49.79
44044;BME280;29709;52.396;16.796;2023-04-10T15:32:28;102260.95;;;17.36;50.11
44044;BME280;29709;52.396;16.796;2023-04-10T15:35:47;102263.23;;;17.33;50.48
44044;BME280;29709;52.396;16.796;2023-04-10T15:39:02;102260.64;;;17.23;47.86
44044;BME280;29709;52.396;16.796;2023-04-10T15:42:17;102249.18;;;17.18;49.35
44044;BME280;29709;52.396;16.796;2023-04-10T15:45:31;102247.80;;;17.22;49.78
44044;BME280;29709;52.396;16.796;2023-04-10T15:48:44;102245.89;;;17.14;50.42
44044;BME280;29709;52.396;16.796;2023-04-10T15:51:59;102240.16;;;17.08;49.12
44044;BME280;29709;52.396;16.796;2023-04-10T15:55:12;102229.59;;;17.11;50.97
44044;BME280;29709;52.396;16.796;2023-04-10T15:58:27;102220.71;;;17.16;51.07
44044;BME280;29709;52.396;16.796;2023-04-10T16:01:41;102219.85;;;17.15;50.38
44044;BME280;29709;52.396;16.796;2023-04-10T16:04:54;102222.45;;;17.09;50.26
44044;BME280;29709;52.396;16.796;2023-04-10T16:08:08;102214.16;;;17.00;50.74
44044;BME280;29709;52.396;16.796;2023-04-10T16:11:21;102208.24;;;16.95;50.44
44044;BME280;29709;52.396;16.796;2023-04-10T16:14:34;102203.38;;;16.97;49.87
44044;BME280;29709;52.396;16.796;2023-04-10T16:17:47;102203.23;;;16.91;50.77
44044;BME280;29709;52.396;16.796;2023-04-10T16:21:00;102197.86;;;16.89;51.32
44044;BME280;29709;52.396;16.796;2023-04-10T16:24:14;102198.19;;;16.86;51.53
44044;BME280;29709;52.396;16.796;2023-04-10T16:27:33;102187.27;;;16.77;52.01
44044;BME280;29709;52.396;16.796;2023-04-10T16:30:47;102190.36;;;16.65;52.23
44044;BME280;29709;52.396;16.796;2023-04-10T16:34:00;102184.31;;;16.62;53.19
44044;BME280;29709;52.396;16.796;2023-04-10T16:37:13;102181.89;;;16.59;52.61
44044;BME280;29709;52.396;16.796;2023-04-10T16:40:27;102182.94;;;16.58;52.15
44044;BME280;29709;52.396;16.796;2023-04-10T16:43:44;102179.29;;;16.49;52.80
44044;BME280;29709;52.396;16.796;2023-04-10T16:46:57;102176.33;;;16.42;53.37
44044;BME280;29709;52.396;16.796;2023-04-10T16:50:17;102170.60;;;16.36;53.49
44044;BME280;29709;52.396;16.796;2023-04-10T16:53:37;102162.30;;;16.28;53.71
44044;BME280;29709;52.396;16.796;2023-04-10T16:56:51;102153.61;;;16.23;53.91
44044;BME280;29709;52.396;16.796;2023-04-10T17:00:05;102158.82;;;16.18;54.45
44044;BME280;29709;52.396;16.796;2023-04-10T17:03:18;102148.57;;;16.10;54.30
44044;BME280;29709;52.396;16.796;2023-04-10T17:06:31;102152.02;;;16.04;55.16
44044;BME280;29709;52.396;16.796;2023-04-10T17:09:45;102151.86;;;15.97;55.24
44044;BME280;29709;52.396;16.796;2023-04-10T17:12:58;102149.93;;;15.90;55.00
44044;BME280;29709;52.396;16.796;2023-04-10T17:16:11;102151.13;;;15.79;55.57
44044;BME280;29709;52.396;16.796;2023-04-10T17:19:24;102151.27;;;15.69;55.84
44044;BME280;29709;52.396;16.796;2023-04-10T17:22:37;102149.65;;;15.58;56.94
44044;BME280;29709;52.396;16.796;2023-04-10T17:25:53;102142.69;;;15.46;57.86
44044;BME280;29709;52.396;16.796;2023-04-10T17:29:06;102141.44;;;15.41;58.07
44044;BME280;29709;52.396;16.796;2023-04-10T17:32:22;102135.37;;;15.37;57.93
44044;BME280;29709;52.396;16.796;2023-04-10T17:35:35;102141.56;;;15.23;57.99
44044;BME280;29709;52.396;16.796;2023-04-10T17:38:51;102137.66;;;15.08;58.20
44044;BME280;29709;52.396;16.796;2023-04-10T17:42:04;102133.96;;;14.91;59.87